sensor_id;sensor_type;location;lat;lon;timestamp;noise_LAeq;noise_LA_min;noise_LA_max;noise_LA01;noise_LA95
65079;Laerm;52655;52.218;5.964;2023-04-07T00:01:38;40.0;29.9;59.5;;
65079;Laerm;52655;52.218;5.964;2023-04-07T00:03:38;30.9;29.3;36.4;;
65079;Laerm;52655;52.218;5.964;2023-04-07T00:05:38;30.7;29.5;34.2;;
65079;Laerm;52655;52.218;5.964;2023-04-07T00:07:38;31.1;30.0;35.4;;
65079;Laerm;52655;52.218;5.964;2023-04-07T00:09:38;31.2;29.7;36.9;;
65079;Laerm;52655;52.218;5.964;2023-04-07T00:11:38;31.9;29.8;43.7;;
65079;Laerm;52655;52.218;5.964;2023-04-07T00:13:38;38.2;29.5;57.0;;
65079;Laerm;52655;52.218;5.964;2023-04-07T00:15:38;30.5;29.3;36.5;;
65079;Laerm;52655;52.218;5.964;2023-04-07T00:17:38;36.2;29.8;55.0;;
65079;Laerm;52655;52.218;5.964;2023-04-07T00:19:39;32.8;29.5;39.3;;
65079;Laerm;52655;52.218;5.964;2023-04-07T00:21:39;38.4;30.0;56.8;;
65079;Laerm;52655;52.218;5.964;2023-04-07T00:23:39;39.1;29.6;55.5;;
65079;Laerm;52655;52.218;5.964;2023-04-07T00:25:39;38.2;29.4;55.6;;
65079;Laerm;52655;52.218;5.964;2023-04-07T00:27:39;31.6;29.9;41.4;;
65079;Laerm;52655;52.218;5.964;2023-04-07T00:29:39;31.4;29.8;36.2;;
65079;Laerm;52655;52.218;5.964;2023-04-07T00:31:39;31.0;29.2;45.6;;
65079;Laerm;52655;52.218;5.964;2023-04-07T00:33:39;43.1;30.3;61.7;;
65079;Laerm;52655;52.218;5.964;2023-04-07T00:35:39;39.8;29.6;60.0;;
65079;Laerm;52655;52.218;5.964;2023-04-07T00:37:39;38.9;30.1;59.0;;
65079;Laerm;52655;52.218;5.964;2023-04-07T00:39:39;32.6;30.2;38.5;;
65079;Laerm;52655;52.218;5.964;2023-04-07T00:41:39;34.6;30.2;50.2;;
65079;Laerm;52655;52.218;5.964;2023-04-07T00:43:39;32.1;29.8;40.9;;
65079;Laerm;52655;52.218;5.964;2023-04-07T00:45:39;32.8;29.7;40.5;;
65079;Laerm;52655;52.218;5.964;2023-04-07T00:47:39;36.5;30.0;52.8;;
65079;Laerm;52655;52.218;5.964;2023-04-07T00:49:39;37.8;29.9;55.3;;
65079;Laerm;52655;52.218;5.964;2023-04-07T00:51:39;31.2;29.7;33.5;;
65079;Laerm;52655;52.218;5.964;2023-04-07T00:53:39;30.8;29.4;46.8;;
65079;Laerm;52655;52.218;5.964;2023-04-07T00:55:39;35.2;29.2;53.4;;
65079;Laerm;52655;52.218;5.964;2023-04-07T00:59:40;31.9;29.4;39.8;;
65079;Laerm;52655;52.218;5.964;2023-04-07T01:01:42;34.0;30.2;51.0;;
65079;Laerm;52655;52.218;5.964;2023-04-07T01:03:42;31.4;29.6;36.0;;
65079;Laerm;52655;52.218;5.964;2023-04-07T01:05:59;32.4;29.7;40.2;;
65079;Laerm;52655;52.218;5.964;2023-04-07T01:08:00;31.2;29.7;36.2;;
65079;Laerm;52655;52.218;5.964;2023-04-07T01:09:41;31.9;30.2;34.9;;
65079;Laerm;52655;52.218;5.964;2023-04-07T01:11:56;36.0;30.1;53.6;;
65079;Laerm;52655;52.218;5.964;2023-04-07T01:13:48;39.3;29.8;58.5;;
65079;Laerm;52655;52.218;5.964;2023-04-07T01:15:40;34.1;30.4;44.2;;
65079;Laerm;52655;52.218;5.964;2023-04-07T01:17:45;37.8;29.8;57.8;;
65079;Laerm;52655;52.218;5.964;2023-04-07T01:19:43;32.4;29.4;51.0;;
65079;Laerm;52655;52.218;5.964;2023-04-07T01:21:43;31.1;29.5;35.2;;
65079;Laerm;52655;52.218;5.964;2023-04-07T01:24:33;31.1;29.6;39.9;;
65079;Laerm;52655;52.218;5.964;2023-04-07T01:26:29;32.6;30.0;50.6;;
65079;Laerm;52655;52.218;5.964;2023-04-07T01:28:30;33.3;30.0;49.4;;
65079;Laerm;52655;52.218;5.964;2023-04-07T01:29:49;48.4;30.3;63.9;;
65079;Laerm;52655;52.218;5.964;2023-04-07T01:31:41;38.0;30.9;55.7;;
65079;Laerm;52655;52.218;5.964;2023-04-07T01:33:41;33.0;29.9;41.7;;
65079;Laerm;52655;52.218;5.964;2023-04-07T01:35:41;30.4;29.1;33.7;;
65079;Laerm;52655;52.218;5.964;2023-04-07T01:39:41;37.3;29.2;53.2;;
65079;Laerm;52655;52.218;5.964;2023-04-07T01:41:41;37.0;29.5;50.9;;
65079;Laerm;52655;52.218;5.964;2023-04-07T01:43:41;31.7;29.3;40.5;;
65079;Laerm;52655;52.218;5.964;2023-04-07T01:45:41;30.7;29.4;37.9;;
65079;Laerm;52655;52.218;5.964;2023-04-07T01:47:41;32.2;29.4;38.0;;
65079;Laerm;52655;52.218;5.964;2023-04-07T01:49:41;30.7;29.1;40.8;;
65079;Laerm;52655;52.218;5.964;2023-04-07T01:53:41;31.4;29.6;38.1;;
65079;Laerm;52655;52.218;5.964;2023-04-07T01:55:41;36.4;29.7;54.1;;
65079;Laerm;52655;52.218;5.964;2023-04-07T01:57:41;31.4;29.2;42.6;;
65079;Laerm;52655;52.218;5.964;2023-04-07T01:59:41;33.6;29.6;50.8;;
65079;Laerm;52655;52.218;5.964;2023-04-07T02:01:41;35.2;29.6;54.0;;
65079;Laerm;52655;52.218;5.964;2023-04-07T02:03:43;32.4;29.6;41.6;;
65079;Laerm;52655;52.218;5.964;2023-04-07T02:05:41;34.2;30.2;50.6;;
65079;Laerm;52655;52.218;5.964;2023-04-07T02:07:49;37.1;29.8;54.8;;
65079;Laerm;52655;52.218;5.964;2023-04-07T02:09:42;31.6;29.1;38.4;;
65079;Laerm;52655;52.218;5.964;2023-04-07T02:11:43;30.8;29.3;37.0;;
65079;Laerm;52655;52.218;5.964;2023-04-07T02:13:42;31.1;29.2;37.1;;
65079;Laerm;52655;52.218;5.964;2023-04-07T02:15:42;31.1;29.3;36.9;;
65079;Laerm;52655;52.218;5.964;2023-04-07T02:17:43;31.4;29.6;39.3;;
65079;Laerm;52655;52.218;5.964;2023-04-07T02:19:42;35.5;29.7;53.5;;
65079;Laerm;52655;52.218;5.964;2023-04-07T02:21:42;36.9;29.5;48.3;;
65079;Laerm;52655;52.218;5.964;2023-04-07T02:23:42;30.5;29.0;35.6;;
65079;Laerm;52655;52.218;5.964;2023-04-07T02:25:42;30.2;29.0;37.1;;
65079;Laerm;52655;52.218;5.964;2023-04-07T02:27:42;35.1;29.3;44.3;;
65079;Laerm;52655;52.218;5.964;2023-04-07T02:29:42;31.5;29.6;40.7;;
65079;Laerm;52655;52.218;5.964;2023-04-07T02:31:42;32.0;29.6;47.6;;
65079;Laerm;52655;52.218;5.964;2023-04-07T02:33:42;32.9;29.2;48.4;;
65079;Laerm;52655;52.218;5.964;2023-04-07T02:35:42;32.8;29.6;45.3;;
65079;Laerm;52655;52.218;5.964;2023-04-07T02:37:42;31.9;29.2;43.1;;
65079;Laerm;52655;52.218;5.964;2023-04-07T02:39:42;37.6;29.4;54.8;;
65079;Laerm;52655;52.218;5.964;2023-04-07T02:41:42;37.3;30.2;54.8;;
65079;Laerm;52655;52.218;5.964;2023-04-07T02:43:42;32.8;29.2;47.8;;
65079;Laerm;52655;52.218;5.964;2023-04-07T02:45:43;38.7;29.3;57.8;;
65079;Laerm;52655;52.218;5.964;2023-04-07T02:47:43;34.4;29.9;47.5;;
65079;Laerm;52655;52.218;5.964;2023-04-07T02:49:43;35.1;29.9;47.2;;
65079;Laerm;52655;52.218;5.964;2023-04-07T02:51:43;32.5;29.6;45.3;;
65079;Laerm;52655;52.218;5.964;2023-04-07T02:53:43;33.9;30.8;44.7;;
65079;Laerm;52655;52.218;5.964;2023-04-07T02:55:43;34.1;29.8;45.9;;
65079;Laerm;52655;52.218;5.964;2023-04-07T02:57:43;34.3;29.9;47.8;;
65079;Laerm;52655;52.218;5.964;2023-04-07T02:59:43;33.0;29.7;47.0;;
65079;Laerm;52655;52.218;5.964;2023-04-07T03:01:43;40.5;30.2;55.0;;
65079;Laerm;52655;52.218;5.964;2023-04-07T03:03:43;45.4;30.4;60.7;;
65079;Laerm;52655;52.218;5.964;2023-04-07T03:05:43;40.6;30.1;56.0;;
65079;Laerm;52655;52.218;5.964;2023-04-07T03:07:43;41.5;30.5;57.8;;
65079;Laerm;52655;52.218;5.964;2023-04-07T03:09:43;41.8;29.8;55.0;;
65079;Laerm;52655;52.218;5.964;2023-04-07T03:11:43;44.8;31.0;55.3;;
65079;Laerm;52655;52.218;5.964;2023-04-07T03:13:43;42.0;31.3;56.2;;
65079;Laerm;52655;52.218;5.964;2023-04-07T03:15:43;42.5;31.3;55.0;;
65079;Laerm;52655;52.218;5.964;2023-04-07T03:17:43;45.3;31.2;58.0;;
65079;Laerm;52655;52.218;5.964;2023-04-07T03:19:43;52.5;30.8;70.2;;
65079;Laerm;52655;52.218;5.964;2023-04-07T03:21:44;53.1;31.3;67.6;;
65079;Laerm;52655;52.218;5.964;2023-04-07T03:23:44;45.2;30.8;58.6;;
65079;Laerm;52655;52.218;5.964;2023-04-07T03:25:44;44.8;30.7;58.0;;
65079;Laerm;52655;52.218;5.964;2023-04-07T03:27:44;40.1;30.6;53.0;;
65079;Laerm;52655;52.218;5.964;2023-04-07T03:29:44;53.0;31.8;73.0;;
65079;Laerm;52655;52.218;5.964;2023-04-07T03:31:44;61.1;32.8;76.0;;
65079;Laerm;52655;52.218;5.964;2023-04-07T03:33:44;61.7;31.9;79.0;;
65079;Laerm;52655;52.218;5.964;2023-04-07T03:35:44;61.3;32.0;77.0;;
65079;Laerm;52655;52.218;5.964;2023-04-07T03:37:44;62.2;32.3;77.0;;
65079;Laerm;52655;52.218;5.964;2023-04-07T03:39:44;61.0;32.0;77.0;;
65079;Laerm;52655;52.218;5.964;2023-04-07T03:41:44;60.6;31.5;75.0;;
65079;Laerm;52655;52.218;5.964;2023-04-07T03:43:44;60.6;32.4;75.0;;
65079;Laerm;52655;52.218;5.964;2023-04-07T03:45:44;60.8;32.2;76.0;;
65079;Laerm;52655;52.218;5.964;2023-04-07T03:47:44;61.3;32.6;77.0;;
65079;Laerm;52655;52.218;5.964;2023-04-07T03:49:44;60.6;32.4;78.0;;
65079;Laerm;52655;52.218;5.964;2023-04-07T03:51:44;60.5;33.7;76.0;;
65079;Laerm;52655;52.218;5.964;2023-04-07T03:53:44;59.0;33.0;78.0;;
65079;Laerm;52655;52.218;5.964;2023-04-07T03:55:45;54.6;34.9;70.0;;
65079;Laerm;52655;52.218;5.964;2023-04-07T03:57:45;53.8;34.9;70.0;;
65079;Laerm;52655;52.218;5.964;2023-04-07T03:59:45;53.1;35.2;68.0;;
65079;Laerm;52655;52.218;5.964;2023-04-07T04:01:45;52.5;34.7;68.0;;
65079;Laerm;52655;52.218;5.964;2023-04-07T04:03:45;51.2;34.4;68.0;;
65079;Laerm;52655;52.218;5.964;2023-04-07T04:05:45;51.2;34.2;67.0;;
65079;Laerm;52655;52.218;5.964;2023-04-07T04:07:45;53.3;33.6;67.0;;
65079;Laerm;52655;52.218;5.964;2023-04-07T04:09:45;53.0;33.8;69.0;;
65079;Laerm;52655;52.218;5.964;2023-04-07T04:11:45;44.7;32.9;59.0;;
65079;Laerm;52655;52.218;5.964;2023-04-07T04:13:45;57.9;33.1;79.0;;
65079;Laerm;52655;52.218;5.964;2023-04-07T04:15:45;61.7;35.2;76.0;;
65079;Laerm;52655;52.218;5.964;2023-04-07T04:17:45;61.1;34.6;76.0;;
65079;Laerm;52655;52.218;5.964;2023-04-07T04:19:45;62.3;33.7;76.0;;
65079;Laerm;52655;52.218;5.964;2023-04-07T04:21:45;60.8;35.2;76.0;;
65079;Laerm;52655;52.218;5.964;2023-04-07T04:23:45;58.9;35.0;77.0;;
65079;Laerm;52655;52.218;5.964;2023-04-07T04:25:45;54.6;36.6;74.0;;
65079;Laerm;52655;52.218;5.964;2023-04-07T04:27:45;44.9;36.0;56.8;;
65079;Laerm;52655;52.218;5.964;2023-04-07T04:29:45;45.3;35.4;55.5;;
65079;Laerm;52655;52.218;5.964;2023-04-07T04:31:46;44.7;36.7;52.8;;
65079;Laerm;52655;52.218;5.964;2023-04-07T04:33:46;43.3;35.6;55.8;;
65079;Laerm;52655;52.218;5.964;2023-04-07T04:35:46;56.9;35.4;74.0;;
65079;Laerm;52655;52.218;5.964;2023-04-07T04:37:46;44.4;35.9;65.0;;
65079;Laerm;52655;52.218;5.964;2023-04-07T04:39:46;53.6;38.2;69.0;;
65079;Laerm;52655;52.218;5.964;2023-04-07T04:41:46;50.9;36.6;63.0;;
65079;Laerm;52655;52.218;5.964;2023-04-07T04:43:46;50.6;35.8;63.0;;
65079;Laerm;52655;52.218;5.964;2023-04-07T04:45:46;52.3;35.7;68.0;;
65079;Laerm;52655;52.218;5.964;2023-04-07T04:47:46;50.6;36.3;61.0;;
65079;Laerm;52655;52.218;5.964;2023-04-07T04:49:46;50.6;36.0;62.0;;
65079;Laerm;52655;52.218;5.964;2023-04-07T04:51:46;49.7;34.7;65.0;;
65079;Laerm;52655;52.218;5.964;2023-04-07T04:53:46;49.3;34.4;61.0;;
65079;Laerm;52655;52.218;5.964;2023-04-07T04:55:46;49.9;35.8;63.0;;
65079;Laerm;52655;52.218;5.964;2023-04-07T04:57:46;49.1;34.8;62.0;;
65079;Laerm;52655;52.218;5.964;2023-04-07T04:59:46;49.7;35.1;63.0;;
65079;Laerm;52655;52.218;5.964;2023-04-07T05:01:46;49.2;35.1;64.0;;
65079;Laerm;52655;52.218;5.964;2023-04-07T05:03:46;42.7;34.9;54.1;;
65079;Laerm;52655;52.218;5.964;2023-04-07T05:05:46;47.7;35.3;62.0;;
65079;Laerm;52655;52.218;5.964;2023-04-07T05:07:46;45.5;35.5;55.0;;
65079;Laerm;52655;52.218;5.964;2023-04-07T05:09:47;46.6;34.2;59.8;;
65079;Laerm;52655;52.218;5.964;2023-04-07T05:13:47;45.5;34.3;57.8;;
65079;Laerm;52655;52.218;5.964;2023-04-07T05:15:47;44.9;36.0;56.7;;
65079;Laerm;52655;52.218;5.964;2023-04-07T05:17:47;52.0;36.0;66.0;;
65079;Laerm;52655;52.218;5.964;2023-04-07T05:19:47;43.9;35.0;57.8;;
65079;Laerm;52655;52.218;5.964;2023-04-07T05:21:47;48.4;36.6;60.5;;
65079;Laerm;52655;52.218;5.964;2023-04-07T05:23:47;45.2;34.9;64.0;;
65079;Laerm;52655;52.218;5.964;2023-04-07T05:25:47;40.6;34.3;55.3;;
65079;Laerm;52655;52.218;5.964;2023-04-07T05:27:47;44.9;34.1;56.7;;
65079;Laerm;52655;52.218;5.964;2023-04-07T05:29:47;46.6;34.9;59.6;;
65079;Laerm;52655;52.218;5.964;2023-04-07T05:31:47;41.8;35.3;56.6;;
65079;Laerm;52655;52.218;5.964;2023-04-07T05:33:47;47.1;37.6;56.7;;
65079;Laerm;52655;52.218;5.964;2023-04-07T05:35:47;46.2;35.9;56.5;;
65079;Laerm;52655;52.218;5.964;2023-04-07T05:37:47;42.6;35.8;53.8;;
65079;Laerm;52655;52.218;5.964;2023-04-07T05:39:47;43.4;35.5;55.4;;
65079;Laerm;52655;52.218;5.964;2023-04-07T05:41:47;46.3;35.7;58.7;;
65079;Laerm;52655;52.218;5.964;2023-04-07T05:43:47;46.4;35.0;60.3;;
65079;Laerm;52655;52.218;5.964;2023-04-07T05:45:47;46.3;36.6;58.3;;
65079;Laerm;52655;52.218;5.964;2023-04-07T05:47:48;46.0;35.6;57.6;;
65079;Laerm;52655;52.218;5.964;2023-04-07T05:49:48;47.9;35.6;60.0;;
65079;Laerm;52655;52.218;5.964;2023-04-07T05:53:48;45.7;36.4;58.6;;
65079;Laerm;52655;52.218;5.964;2023-04-07T05:55:48;45.8;34.9;56.2;;
65079;Laerm;52655;52.218;5.964;2023-04-07T05:57:48;43.8;34.6;53.9;;
65079;Laerm;52655;52.218;5.964;2023-04-07T05:59:48;47.7;36.3;61.5;;
65079;Laerm;52655;52.218;5.964;2023-04-07T06:01:48;45.4;34.4;61.7;;
65079;Laerm;52655;52.218;5.964;2023-04-07T06:03:48;45.3;35.9;56.5;;
65079;Laerm;52655;52.218;5.964;2023-04-07T06:05:48;48.9;37.5;61.7;;
65079;Laerm;52655;52.218;5.964;2023-04-07T06:07:48;49.2;37.1;60.7;;
65079;Laerm;52655;52.218;5.964;2023-04-07T06:09:48;48.4;36.8;62.6;;
65079;Laerm;52655;52.218;5.964;2023-04-07T06:11:48;44.5;35.5;59.1;;
65079;Laerm;52655;52.218;5.964;2023-04-07T06:13:48;41.8;34.9;54.8;;
65079;Laerm;52655;52.218;5.964;2023-04-07T06:15:48;46.7;35.3;59.8;;
65079;Laerm;52655;52.218;5.964;2023-04-07T06:19:49;47.7;35.9;63.0;;
65079;Laerm;52655;52.218;5.964;2023-04-07T06:21:49;44.3;36.0;55.2;;
65079;Laerm;52655;52.218;5.964;2023-04-07T06:23:49;47.2;38.4;56.4;;
65079;Laerm;52655;52.218;5.964;2023-04-07T06:25:49;46.0;38.3;55.6;;
65079;Laerm;52655;52.218;5.964;2023-04-07T06:27:49;46.9;38.4;59.6;;
65079;Laerm;52655;52.218;5.964;2023-04-07T06:29:49;44.7;37.8;55.8;;
65079;Laerm;52655;52.218;5.964;2023-04-07T06:31:49;45.7;37.8;58.1;;
65079;Laerm;52655;52.218;5.964;2023-04-07T06:33:49;50.2;37.3;63.7;;
65079;Laerm;52655;52.218;5.964;2023-04-07T06:35:49;47.7;39.2;62.0;;
65079;Laerm;52655;52.218;5.964;2023-04-07T06:37:49;46.1;37.6;60.0;;
65079;Laerm;52655;52.218;5.964;2023-04-07T06:39:49;46.9;37.9;59.2;;
65079;Laerm;52655;52.218;5.964;2023-04-07T06:41:49;48.3;37.9;60.5;;
65079;Laerm;52655;52.218;5.964;2023-04-07T06:43:49;47.2;38.4;59.0;;
65079;Laerm;52655;52.218;5.964;2023-04-07T06:45:49;51.8;38.6;65.7;;
65079;Laerm;52655;52.218;5.964;2023-04-07T06:47:49;53.8;38.0;65.0;;
65079;Laerm;52655;52.218;5.964;2023-04-07T06:49:49;52.6;38.4;66.3;;
65079;Laerm;52655;52.218;5.964;2023-04-07T06:51:49;46.6;37.6;56.2;;
65079;Laerm;52655;52.218;5.964;2023-04-07T06:53:49;49.6;36.5;68.0;;
65079;Laerm;52655;52.218;5.964;2023-04-07T06:57:50;47.9;38.4;68.5;;
65079;Laerm;52655;52.218;5.964;2023-04-07T07:01:50;47.0;37.7;57.8;;
65079;Laerm;52655;52.218;5.964;2023-04-07T07:03:50;47.6;39.3;61.6;;
65079;Laerm;52655;52.218;5.964;2023-04-07T07:05:50;46.4;37.9;57.6;;
65079;Laerm;52655;52.218;5.964;2023-04-07T07:07:50;50.4;38.9;68.0;;
65079;Laerm;52655;52.218;5.964;2023-04-07T07:09:50;47.4;39.0;65.0;;
65079;Laerm;52655;52.218;5.964;2023-04-07T07:11:50;46.2;39.5;57.7;;
65079;Laerm;52655;52.218;5.964;2023-04-07T07:13:50;48.1;39.7;66.7;;
65079;Laerm;52655;52.218;5.964;2023-04-07T07:15:50;45.4;37.1;60.2;;
65079;Laerm;52655;52.218;5.964;2023-04-07T07:19:50;44.5;38.6;59.5;;
65079;Laerm;52655;52.218;5.964;2023-04-07T07:21:50;48.9;39.0;59.8;;
65079;Laerm;52655;52.218;5.964;2023-04-07T07:23:50;47.2;38.5;58.9;;
65079;Laerm;52655;52.218;5.964;2023-04-07T07:25:50;47.5;37.6;57.9;;
65079;Laerm;52655;52.218;5.964;2023-04-07T07:27:50;46.4;37.2;59.3;;
65079;Laerm;52655;52.218;5.964;2023-04-07T07:29:50;46.9;38.2;62.0;;
65079;Laerm;52655;52.218;5.964;2023-04-07T07:31:51;46.4;38.4;56.9;;
65079;Laerm;52655;52.218;5.964;2023-04-07T07:33:51;46.6;39.3;56.2;;
65079;Laerm;52655;52.218;5.964;2023-04-07T07:35:51;45.7;37.2;57.1;;
65079;Laerm;52655;52.218;5.964;2023-04-07T07:37:51;47.3;37.6;59.3;;
65079;Laerm;52655;52.218;5.964;2023-04-07T07:41:51;49.7;37.8;62.3;;
65079;Laerm;52655;52.218;5.964;2023-04-07T07:43:51;50.4;38.6;67.0;;
65079;Laerm;52655;52.218;5.964;2023-04-07T07:45:51;46.0;37.3;56.1;;
65079;Laerm;52655;52.218;5.964;2023-04-07T07:47:51;47.3;38.4;58.6;;
65079;Laerm;52655;52.218;5.964;2023-04-07T07:49:51;48.4;38.2;60.1;;
65079;Laerm;52655;52.218;5.964;2023-04-07T07:51:51;44.7;37.1;56.0;;
65079;Laerm;52655;52.218;5.964;2023-04-07T07:53:51;47.3;37.2;59.8;;
65079;Laerm;52655;52.218;5.964;2023-04-07T07:57:51;45.1;35.7;65.0;;
65079;Laerm;52655;52.218;5.964;2023-04-07T07:59:51;48.1;37.8;66.0;;
65079;Laerm;52655;52.218;5.964;2023-04-07T08:01:51;45.9;36.4;56.0;;
65079;Laerm;52655;52.218;5.964;2023-04-07T08:03:51;47.4;37.1;59.2;;
65079;Laerm;52655;52.218;5.964;2023-04-07T08:05:51;46.9;36.8;60.0;;
65079;Laerm;52655;52.218;5.964;2023-04-07T08:07:52;46.6;37.3;60.0;;
65079;Laerm;52655;52.218;5.964;2023-04-07T08:11:52;45.7;36.7;55.1;;
65079;Laerm;52655;52.218;5.964;2023-04-07T08:13:52;45.9;36.5;62.7;;
65079;Laerm;52655;52.218;5.964;2023-04-07T08:15:52;56.2;37.6;72.0;;
65079;Laerm;52655;52.218;5.964;2023-04-07T08:17:52;47.2;37.5;65.0;;
65079;Laerm;52655;52.218;5.964;2023-04-07T08:19:52;46.9;36.6;61.0;;
65079;Laerm;52655;52.218;5.964;2023-04-07T08:21:52;49.2;38.4;60.0;;
65079;Laerm;52655;52.218;5.964;2023-04-07T08:23:52;47.7;37.2;59.4;;
65079;Laerm;52655;52.218;5.964;2023-04-07T08:25:52;46.6;38.0;56.8;;
65079;Laerm;52655;52.218;5.964;2023-04-07T08:27:52;47.7;38.9;64.0;;
65079;Laerm;52655;52.218;5.964;2023-04-07T08:29:57;47.2;37.1;59.7;;
65079;Laerm;52655;52.218;5.964;2023-04-07T08:31:52;49.1;40.7;57.8;;
65079;Laerm;52655;52.218;5.964;2023-04-07T08:33:52;49.9;38.9;65.4;;
65079;Laerm;52655;52.218;5.964;2023-04-07T08:35:52;46.9;37.3;60.3;;
65079;Laerm;52655;52.218;5.964;2023-04-07T08:37:52;49.2;40.2;59.2;;
65079;Laerm;52655;52.218;5.964;2023-04-07T08:41:52;48.1;39.6;58.1;;
65079;Laerm;52655;52.218;5.964;2023-04-07T08:43:53;46.2;37.1;60.8;;
65079;Laerm;52655;52.218;5.964;2023-04-07T08:45:55;46.0;36.6;56.2;;
65079;Laerm;52655;52.218;5.964;2023-04-07T08:47:54;46.4;37.9;59.1;;
65079;Laerm;52655;52.218;5.964;2023-04-07T08:49:54;47.1;38.0;58.8;;
65079;Laerm;52655;52.218;5.964;2023-04-07T08:51:53;46.3;36.6;57.4;;
65079;Laerm;52655;52.218;5.964;2023-04-07T08:55:53;50.7;38.2;65.0;;
65079;Laerm;52655;52.218;5.964;2023-04-07T08:57:53;48.4;37.4;64.0;;
65079;Laerm;52655;52.218;5.964;2023-04-07T08:59:53;50.2;39.5;58.1;;
65079;Laerm;52655;52.218;5.964;2023-04-07T09:01:53;51.5;40.8;64.5;;
65079;Laerm;52655;52.218;5.964;2023-04-07T09:03:53;47.2;38.5;62.8;;
65079;Laerm;52655;52.218;5.964;2023-04-07T09:05:53;49.7;39.3;62.8;;
65079;Laerm;52655;52.218;5.964;2023-04-07T09:07:53;48.3;38.0;61.0;;
65079;Laerm;52655;52.218;5.964;2023-04-07T09:09:53;49.2;37.8;63.0;;
65079;Laerm;52655;52.218;5.964;2023-04-07T09:11:53;48.9;39.0;63.7;;
65079;Laerm;52655;52.218;5.964;2023-04-07T09:13:54;49.7;39.3;63.0;;
65079;Laerm;52655;52.218;5.964;2023-04-07T09:15:53;51.1;38.2;70.0;;
65079;Laerm;52655;52.218;5.964;2023-04-07T09:17:55;52.0;37.8;66.0;;
65079;Laerm;52655;52.218;5.964;2023-04-07T09:19:54;50.4;36.8;67.0;;
65079;Laerm;52655;52.218;5.964;2023-04-07T09:21:53;52.1;38.2;65.0;;
65079;Laerm;52655;52.218;5.964;2023-04-07T09:23:54;52.5;43.6;65.0;;
65079;Laerm;52655;52.218;5.964;2023-04-07T09:27:54;52.5;38.4;69.0;;
65079;Laerm;52655;52.218;5.964;2023-04-07T09:29:54;53.3;38.4;66.7;;
65079;Laerm;52655;52.218;5.964;2023-04-07T09:31:54;47.9;38.0;64.7;;
65079;Laerm;52655;52.218;5.964;2023-04-07T09:33:54;52.5;38.4;68.7;;
65079;Laerm;52655;52.218;5.964;2023-04-07T09:35:54;52.7;38.6;73.0;;
65079;Laerm;52655;52.218;5.964;2023-04-07T09:37:59;46.0;36.1;57.1;;
65079;Laerm;52655;52.218;5.964;2023-04-07T09:39:54;46.4;38.0;59.1;;
65079;Laerm;52655;52.218;5.964;2023-04-07T09:43:55;48.4;38.9;56.9;;
65079;Laerm;52655;52.218;5.964;2023-04-07T09:46:05;47.4;37.7;57.8;;
65079;Laerm;52655;52.218;5.964;2023-04-07T09:47:54;46.2;38.8;56.0;;
65079;Laerm;52655;52.218;5.964;2023-04-07T09:49:55;47.8;36.9;58.4;;
65079;Laerm;52655;52.218;5.964;2023-04-07T09:51:55;46.9;37.2;58.6;;
65079;Laerm;52655;52.218;5.964;2023-04-07T09:53:54;48.5;39.1;58.6;;
65079;Laerm;52655;52.218;5.964;2023-04-07T09:55:54;47.9;38.2;61.0;;
65079;Laerm;52655;52.218;5.964;2023-04-07T09:57:55;49.1;40.2;63.8;;
65079;Laerm;52655;52.218;5.964;2023-04-07T09:59:55;46.0;36.8;61.5;;
65079;Laerm;52655;52.218;5.964;2023-04-07T10:01:55;49.7;39.4;58.6;;
65079;Laerm;52655;52.218;5.964;2023-04-07T10:03:55;48.9;37.7;59.6;;
65079;Laerm;52655;52.218;5.964;2023-04-07T10:05:55;45.2;36.6;60.0;;
65079;Laerm;52655;52.218;5.964;2023-04-07T10:07:55;46.7;36.6;61.0;;
65079;Laerm;52655;52.218;5.964;2023-04-07T10:09:56;46.9;37.6;59.0;;
65079;Laerm;52655;52.218;5.964;2023-04-07T10:11:55;45.2;35.1;58.8;;
65079;Laerm;52655;52.218;5.964;2023-04-07T10:13:55;47.2;36.7;61.0;;
65079;Laerm;52655;52.218;5.964;2023-04-07T10:15:57;45.9;36.6;57.5;;
65079;Laerm;52655;52.218;5.964;2023-04-07T10:17:55;50.4;37.3;65.9;;
65079;Laerm;52655;52.218;5.964;2023-04-07T10:19:55;47.2;37.2;62.0;;
65079;Laerm;52655;52.218;5.964;2023-04-07T10:21:55;46.7;36.8;58.8;;
65079;Laerm;52655;52.218;5.964;2023-04-07T10:23:58;46.9;36.9;56.0;;
65079;Laerm;52655;52.218;5.964;2023-04-07T10:25:55;49.2;40.9;57.0;;
65079;Laerm;52655;52.218;5.964;2023-04-07T10:27:58;51.0;37.8;67.0;;
65079;Laerm;52655;52.218;5.964;2023-04-07T10:29:55;48.9;36.8;61.3;;
65079;Laerm;52655;52.218;5.964;2023-04-07T10:31:56;47.4;36.4;56.8;;
65079;Laerm;52655;52.218;5.964;2023-04-07T10:33:55;46.0;36.3;58.3;;
65079;Laerm;52655;52.218;5.964;2023-04-07T10:36:06;45.5;37.1;57.8;;
65079;Laerm;52655;52.218;5.964;2023-04-07T10:38:12;46.4;36.2;60.0;;
65079;Laerm;52655;52.218;5.964;2023-04-07T10:40:26;47.9;37.3;63.0;;
65079;Laerm;52655;52.218;5.964;2023-04-07T10:41:56;45.7;35.2;57.2;;
65079;Laerm;52655;52.218;5.964;2023-04-07T10:43:56;46.0;35.6;59.0;;
65079;Laerm;52655;52.218;5.964;2023-04-07T10:45:57;49.5;36.4;60.5;;
65079;Laerm;52655;52.218;5.964;2023-04-07T10:48:14;48.8;38.3;60.8;;
65079;Laerm;52655;52.218;5.964;2023-04-07T10:50:22;46.9;38.0;61.0;;
65079;Laerm;52655;52.218;5.964;2023-04-07T10:54:21;47.8;36.4;60.0;;
65079;Laerm;52655;52.218;5.964;2023-04-07T10:55:56;47.3;36.7;60.0;;
65079;Laerm;52655;52.218;5.964;2023-04-07T10:58:14;47.6;38.5;58.8;;
65079;Laerm;52655;52.218;5.964;2023-04-07T11:00:15;47.7;38.9;57.4;;
65079;Laerm;52655;52.218;5.964;2023-04-07T11:02:37;47.2;37.3;58.5;;
65079;Laerm;52655;52.218;5.964;2023-04-07T11:03:57;49.2;38.2;60.9;;
65079;Laerm;52655;52.218;5.964;2023-04-07T11:06:02;46.7;36.2;61.3;;
65079;Laerm;52655;52.218;5.964;2023-04-07T11:07:56;45.6;36.8;56.9;;
65079;Laerm;52655;52.218;5.964;2023-04-07T11:10:07;49.2;39.2;69.0;;
65079;Laerm;52655;52.218;5.964;2023-04-07T11:11:57;46.8;37.9;60.0;;
65079;Laerm;52655;52.218;5.964;2023-04-07T11:13:57;46.6;36.2;56.7;;
65079;Laerm;52655;52.218;5.964;2023-04-07T11:15:57;46.9;37.1;56.9;;
65079;Laerm;52655;52.218;5.964;2023-04-07T11:18:05;48.4;38.0;66.0;;
65079;Laerm;52655;52.218;5.964;2023-04-07T11:19:57;47.1;37.8;57.1;;
65079;Laerm;52655;52.218;5.964;2023-04-07T11:22:13;46.4;36.8;60.8;;
65079;Laerm;52655;52.218;5.964;2023-04-07T11:23:57;48.6;36.6;58.8;;
65079;Laerm;52655;52.218;5.964;2023-04-07T11:25:59;47.2;37.9;60.8;;
65079;Laerm;52655;52.218;5.964;2023-04-07T11:27:57;47.9;38.0;63.0;;
65079;Laerm;52655;52.218;5.964;2023-04-07T11:29:57;49.9;37.6;64.0;;
65079;Laerm;52655;52.218;5.964;2023-04-07T11:32:01;48.4;39.5;63.0;;
65079;Laerm;52655;52.218;5.964;2023-04-07T11:35:58;47.7;37.4;62.0;;
65079;Laerm;52655;52.218;5.964;2023-04-07T11:37:58;47.6;36.8;61.0;;
65079;Laerm;52655;52.218;5.964;2023-04-07T11:39:58;48.1;40.7;59.3;;
65079;Laerm;52655;52.218;5.964;2023-04-07T11:41:57;46.1;38.1;59.5;;
65079;Laerm;52655;52.218;5.964;2023-04-07T11:44:05;47.7;39.0;61.3;;
65079;Laerm;52655;52.218;5.964;2023-04-07T11:46:09;47.8;39.5;58.1;;
65079;Laerm;52655;52.218;5.964;2023-04-07T11:47:58;49.8;37.3;60.8;;
65079;Laerm;52655;52.218;5.964;2023-04-07T11:49:58;46.1;37.6;58.1;;
65079;Laerm;52655;52.218;5.964;2023-04-07T11:52:00;45.6;38.6;60.0;;
65079;Laerm;52655;52.218;5.964;2023-04-07T11:55:58;48.1;39.6;57.8;;
65079;Laerm;52655;52.218;5.964;2023-04-07T11:58:04;47.5;39.8;58.4;;
65079;Laerm;52655;52.218;5.964;2023-04-07T12:00:04;49.6;40.2;58.1;;
65079;Laerm;52655;52.218;5.964;2023-04-07T12:01:58;46.2;39.0;56.2;;
65079;Laerm;52655;52.218;5.964;2023-04-07T12:04:02;47.5;40.9;56.7;;
65079;Laerm;52655;52.218;5.964;2023-04-07T12:05:58;47.9;38.8;62.9;;
65079;Laerm;52655;52.218;5.964;2023-04-07T12:07:58;48.0;37.3;57.3;;
65079;Laerm;52655;52.218;5.964;2023-04-07T12:10:13;46.6;37.4;59.8;;
65079;Laerm;52655;52.218;5.964;2023-04-07T12:11:58;44.5;35.5;58.1;;
65079;Laerm;52655;52.218;5.964;2023-04-07T12:13:58;51.6;39.0;60.9;;
65079;Laerm;52655;52.218;5.964;2023-04-07T12:15:58;48.9;40.8;61.2;;
65079;Laerm;52655;52.218;5.964;2023-04-07T12:17:58;46.1;37.9;57.6;;
65079;Laerm;52655;52.218;5.964;2023-04-07T12:19:59;47.4;39.2;59.3;;